createdAt,value
2023-02-20T05:00:28.120Z,3.80
2023-02-20T05:11:32.952Z,5.20
2023-02-20T05:22:32.834Z,4.40
2023-02-20T05:33:32.720Z,4.00
2023-02-20T05:44:32.628Z,3.40
2023-02-20T05:55:32.545Z,3.60
2023-02-20T06:06:32.354Z,2.60
2023-02-20T06:17:32.221Z,4.20
2023-02-20T06:28:32.110Z,3.20
2023-02-20T06:39:31.982Z,3.00
2023-02-20T06:50:31.930Z,3.40
2023-02-20T07:01:31.783Z,3.30
2023-02-20T07:12:31.678Z,3.70
2023-02-20T07:23:31.501Z,3.40
2023-02-20T07:34:31.371Z,3.30
2023-02-20T07:45:31.276Z,4.10
2023-02-20T07:56:31.190Z,4.60
2023-02-20T08:07:31.014Z,3.50
2023-02-20T08:18:31.901Z,4.50
2023-02-20T08:29:30.768Z,4.70
2023-02-20T08:40:30.660Z,5.30
2023-02-20T08:51:30.527Z,4.70
2023-02-20T09:02:30.485Z,5.90
2023-02-20T09:13:30.274Z,3.80
2023-02-20T09:24:30.235Z,4.80
2023-02-20T09:35:30.031Z,5.00
2023-02-20T09:46:29.908Z,4.40
2023-02-20T09:57:29.757Z,4.40
2023-02-20T10:08:29.632Z,5.30
2023-02-20T10:19:29.513Z,5.70
2023-02-20T10:30:29.463Z,6.70
2023-02-20T10:41:29.451Z,5.10
2023-02-20T10:52:34.236Z,5.30
2023-02-20T11:03:29.048Z,5.10
2023-02-20T11:14:39.887Z,4.90
2023-02-20T11:25:28.912Z,4.70
2023-02-20T11:36:28.741Z,5.30
2023-02-20T11:47:28.806Z,6.50
2023-02-20T11:58:28.594Z,7.80
2023-02-20T12:09:28.296Z,5.00
2023-02-20T12:20:28.179Z,4.00
2023-02-20T12:31:28.117Z,4.00
2023-02-20T12:42:27.948Z,2.60
2023-02-20T12:53:27.827Z,3.30
2023-02-20T13:04:27.772Z,2.20
2023-02-20T13:15:28.575Z,3.30
2023-02-20T13:26:27.452Z,2.30
2023-02-20T13:37:27.325Z,2.90
2023-02-20T13:48:28.174Z,2.40
2023-02-20T13:59:27.140Z,2.20
2023-02-20T14:10:26.936Z,2.80
2023-02-20T14:21:26.812Z,3.20
2023-02-20T14:32:26.950Z,3.30
2023-02-20T14:43:26.614Z,3.50
2023-02-20T14:54:26.456Z,4.00
2023-02-20T15:05:26.375Z,3.20
2023-02-20T15:16:26.380Z,2.80
2023-02-20T15:27:26.121Z,3.10
2023-02-20T15:38:27.070Z,2.30
2023-02-20T15:49:25.826Z,2.80
2023-02-20T16:00:25.721Z,2.40
2023-02-20T16:11:26.394Z,2.40
2023-02-20T16:22:28.696Z,2.80
2023-02-20T16:33:25.326Z,2.80
2023-02-20T16:44:25.224Z,4.00
2023-02-20T16:55:25.153Z,3.10
2023-02-20T17:06:25.111Z,2.00
2023-02-20T17:17:25.889Z,3.70
2023-02-20T17:28:24.780Z,2.90
2023-02-20T17:39:24.612Z,2.40
2023-02-20T17:50:24.508Z,2.20
2023-02-20T18:01:24.340Z,3.20
2023-02-20T18:12:24.224Z,2.60
2023-02-20T18:23:24.128Z,3.00
2023-02-20T18:34:23.990Z,2.40
2023-02-20T18:45:23.837Z,2.60
2023-02-20T18:56:23.762Z,2.60
2023-02-20T19:07:23.632Z,2.40
2023-02-20T19:18:23.485Z,2.80
2023-02-20T19:29:23.402Z,2.40
2023-02-20T19:40:23.233Z,1.90
2023-02-20T19:51:23.223Z,2.40
2023-02-20T20:02:25.262Z,3.20
2023-02-20T20:13:22.864Z,2.70
2023-02-20T20:24:22.750Z,3.20
2023-02-20T20:35:22.675Z,2.80
2023-02-20T20:46:22.566Z,3.40
2023-02-20T20:57:22.361Z,3.20
2023-02-20T21:08:22.218Z,3.10
2023-02-20T21:19:22.108Z,4.10
2023-02-20T21:30:22.020Z,4.50
2023-02-20T21:41:21.920Z,3.60
2023-02-20T21:52:22.650Z,4.00
